createdAt,value
2023-04-03T00:00:31.835Z,100.00
2023-04-03T00:02:58.194Z,100.00
2023-04-03T00:05:24.099Z,100.00
2023-04-03T00:07:50.370Z,100.00
2023-04-03T00:10:16.552Z,100.00
2023-04-03T00:12:42.558Z,100.00
2023-04-03T00:15:08.976Z,100.00
2023-04-03T00:17:35.362Z,100.00
2023-04-03T00:20:01.962Z,100.00
2023-04-03T00:22:28.894Z,100.00
2023-04-03T00:24:55.564Z,100.00
2023-04-03T00:27:21.875Z,100.00
2023-04-03T00:29:47.688Z,100.00
2023-04-03T00:32:14.167Z,100.00
2023-04-03T00:34:39.949Z,100.00
2023-04-03T00:37:06.421Z,100.00
2023-04-03T00:39:32.405Z,100.00
2023-04-03T00:41:58.427Z,100.00
2023-04-03T00:44:33.431Z,100.00
2023-04-03T00:47:00.116Z,100.00
2023-04-03T00:49:27.479Z,100.00
2023-04-03T00:51:54.270Z,100.00
2023-04-03T00:54:20.333Z,100.00
2023-04-03T00:56:46.404Z,100.00
2023-04-03T00:59:17.054Z,100.00
2023-04-03T01:01:46.371Z,100.00
2023-04-03T01:04:28.835Z,100.00
2023-04-03T01:06:57.665Z,100.00
2023-04-03T01:09:23.607Z,100.00
2023-04-03T01:11:49.707Z,100.00
2023-04-03T01:14:15.574Z,100.00
2023-04-03T01:16:41.375Z,100.00
2023-04-03T01:19:14.853Z,100.00
2023-04-03T01:21:49.417Z,100.00
2023-04-03T01:24:33.110Z,100.00
2023-04-03T01:27:00.578Z,100.00
2023-04-03T01:29:27.068Z,100.00
2023-04-03T01:32:11.299Z,100.00
2023-04-03T01:34:37.144Z,100.00
2023-04-03T01:37:02.969Z,100.00
2023-04-03T01:39:28.785Z,100.00
2023-04-03T01:41:54.895Z,100.00
2023-04-03T01:44:20.901Z,100.00
2023-04-03T01:46:47.657Z,100.00
2023-04-03T01:49:13.576Z,100.00
2023-04-03T01:51:39.523Z,100.00
2023-04-03T01:54:05.500Z,100.00
2023-04-03T01:56:31.324Z,100.00
2023-04-03T01:58:57.119Z,100.00
2023-04-03T02:01:23.649Z,100.00
2023-04-03T02:03:49.857Z,100.00
2023-04-03T02:06:15.811Z,100.00
2023-04-03T02:08:42.119Z,100.00
2023-04-03T02:11:07.997Z,100.00
2023-04-03T02:13:33.838Z,100.00
2023-04-03T02:15:59.678Z,100.00
2023-04-03T02:18:25.464Z,100.00
2023-04-03T02:20:51.283Z,100.00
2023-04-03T02:23:17.090Z,100.00
2023-04-03T02:25:42.899Z,100.00
2023-04-03T02:28:08.733Z,100.00
2023-04-03T02:30:35.034Z,100.00
2023-04-03T02:33:01.264Z,100.00
2023-04-03T02:35:27.301Z,100.00
2023-04-03T02:37:53.215Z,100.00
2023-04-03T02:40:19.215Z,100.00
2023-04-03T02:42:45.421Z,100.00
2023-04-03T02:45:11.381Z,100.00
2023-04-03T02:47:37.242Z,100.00
2023-04-03T02:50:03.274Z,100.00
2023-04-03T02:52:29.088Z,100.00
2023-04-03T02:54:54.974Z,100.00
2023-04-03T02:57:20.894Z,100.00
2023-04-03T02:59:46.779Z,100.00
2023-04-03T03:02:12.623Z,100.00
2023-04-03T03:04:38.556Z,100.00
2023-04-03T03:07:04.718Z,100.00
2023-04-03T03:09:30.510Z,100.00
2023-04-03T03:11:57.261Z,100.00
2023-04-03T03:14:23.625Z,100.00
2023-04-03T03:16:49.794Z,100.00
2023-04-03T03:19:16.212Z,100.00
2023-04-03T03:21:42.050Z,100.00
2023-04-03T03:24:08.148Z,100.00
2023-04-03T03:26:34.170Z,100.00
2023-04-03T03:29:00.114Z,100.00
2023-04-03T03:31:26.022Z,100.00
2023-04-03T03:33:51.950Z,100.00
2023-04-03T03:36:17.808Z,100.00
2023-04-03T03:38:43.780Z,100.00
2023-04-03T03:41:09.872Z,100.00
2023-04-03T03:43:35.691Z,100.00
2023-04-03T03:46:01.565Z,100.00
2023-04-03T03:48:27.481Z,100.00
2023-04-03T03:50:53.289Z,100.00
2023-04-03T03:53:19.606Z,100.00
2023-04-03T03:55:45.506Z,100.00
2023-04-03T03:58:11.332Z,100.00
2023-04-03T04:00:37.290Z,100.00
2023-04-03T04:03:03.667Z,100.00
2023-04-03T04:05:29.681Z,100.00
2023-04-03T04:07:55.478Z,100.00
2023-04-03T04:10:21.391Z,100.00
2023-04-03T04:12:49.295Z,100.00
2023-04-03T04:15:15.151Z,100.00
2023-04-03T04:17:40.992Z,100.00
2023-04-03T04:20:07.277Z,100.00
2023-04-03T04:22:33.158Z,100.00
2023-04-03T04:24:59.056Z,100.00
2023-04-03T04:27:24.928Z,100.00
2023-04-03T04:29:50.789Z,100.00
2023-04-03T04:32:16.669Z,100.00
2023-04-03T04:34:42.549Z,100.00
2023-04-03T04:37:08.451Z,100.00
2023-04-03T04:39:35.107Z,100.00
2023-04-03T04:42:00.932Z,100.00
2023-04-03T04:44:26.675Z,100.00
2023-04-03T04:46:52.535Z,100.00
2023-04-03T04:49:18.392Z,100.00
2023-04-03T04:51:51.674Z,100.00
2023-04-03T04:54:18.719Z,100.00
2023-04-03T04:56:44.593Z,100.00
2023-04-03T04:59:10.546Z,100.00
2023-04-03T05:01:36.337Z,100.00
2023-04-03T05:04:02.323Z,100.00
2023-04-03T05:06:30.395Z,100.00
2023-04-03T05:08:56.461Z,100.00
2023-04-03T05:11:22.254Z,100.00
2023-04-03T05:13:51.316Z,100.00
2023-04-03T05:16:17.312Z,100.00
2023-04-03T05:18:43.160Z,100.00
2023-04-03T05:21:09.153Z,100.00
2023-04-03T05:23:35.103Z,100.00
2023-04-03T05:26:00.855Z,100.00
2023-04-03T05:28:26.863Z,100.00
2023-04-03T05:30:58.013Z,100.00
2023-04-03T05:33:25.079Z,100.00
2023-04-03T05:35:50.985Z,100.00
2023-04-03T05:38:16.921Z,100.00
2023-04-03T05:40:42.878Z,100.00
2023-04-03T05:43:08.809Z,100.00
2023-04-03T05:45:34.865Z,100.00
2023-04-03T05:48:00.746Z,100.00
2023-04-03T05:50:26.620Z,100.00
2023-04-03T05:52:56.865Z,100.00
2023-04-03T05:55:22.650Z,100.00
2023-04-03T05:57:48.560Z,100.00
2023-04-03T06:00:15.880Z,100.00
2023-04-03T06:02:42.253Z,100.00
2023-04-03T06:05:09.714Z,100.00
2023-04-03T06:07:36.143Z,100.00
2023-04-03T06:10:02.735Z,100.00
2023-04-03T06:12:31.746Z,100.00
2023-04-03T06:14:57.621Z,100.00
2023-04-03T06:17:24.024Z,100.00
2023-04-03T06:19:49.842Z,100.00
2023-04-03T06:22:15.935Z,100.00
2023-04-03T06:24:41.906Z,100.00
2023-04-03T06:27:08.146Z,100.00
2023-04-03T06:29:33.997Z,100.00
2023-04-03T06:31:59.788Z,100.00
2023-04-03T06:34:26.071Z,100.00
2023-04-03T06:36:51.823Z,100.00
2023-04-03T06:39:23.035Z,100.00
2023-04-03T06:41:49.536Z,100.00
2023-04-03T06:44:16.415Z,100.00
2023-04-03T06:46:44.063Z,100.00
2023-04-03T06:49:10.601Z,100.00
2023-04-03T06:51:36.814Z,100.00
2023-04-03T06:54:04.286Z,100.00
2023-04-03T06:56:30.979Z,100.00
2023-04-03T06:59:00.129Z,100.00
2023-04-03T07:01:30.165Z,100.00
2023-04-03T07:03:56.542Z,100.00
2023-04-03T07:06:23.018Z,100.00
2023-04-03T07:08:49.429Z,100.00
2023-04-03T07:11:16.214Z,100.00
2023-04-03T07:13:42.194Z,100.00
2023-04-03T07:16:08.732Z,100.00
2023-04-03T07:18:35.000Z,100.00
2023-04-03T07:21:01.417Z,100.00
2023-04-03T07:23:27.740Z,100.00
2023-04-03T07:25:53.955Z,100.00
2023-04-03T07:28:21.007Z,100.00
2023-04-03T07:30:55.344Z,100.00
2023-04-03T07:33:23.156Z,100.00
2023-04-03T07:35:49.972Z,100.00
2023-04-03T07:38:16.473Z,100.00
2023-04-03T07:40:47.700Z,100.00
2023-04-03T07:43:14.271Z,100.00
2023-04-03T07:45:40.362Z,100.00
2023-04-03T07:48:06.666Z,100.00
2023-04-03T07:50:32.669Z,100.00
2023-04-03T07:52:59.169Z,100.00
2023-04-03T07:55:25.788Z,100.00
2023-04-03T07:57:51.775Z,100.00
2023-04-03T08:00:18.155Z,100.00
2023-04-03T08:02:44.925Z,100.00
2023-04-03T08:05:11.792Z,100.00
2023-04-03T08:07:38.492Z,100.00
2023-04-03T08:10:05.008Z,100.00
2023-04-03T08:12:32.253Z,100.00
2023-04-03T08:15:01.479Z,100.00
2023-04-03T08:17:27.488Z,100.00
2023-04-03T08:19:53.365Z,100.00
2023-04-03T08:22:19.664Z,100.00
2023-04-03T08:24:56.159Z,100.00
2023-04-03T08:27:24.886Z,100.00
2023-04-03T08:29:51.665Z,97.78
2023-04-03T08:32:18.267Z,96.58
2023-04-03T08:34:44.315Z,94.52
2023-04-03T08:37:10.336Z,94.67
2023-04-03T08:39:36.283Z,92.66
2023-04-03T08:42:14.261Z,89.52
2023-04-03T08:45:03.570Z,90.08
2023-04-03T08:47:41.021Z,91.31
2023-04-03T08:50:21.279Z,89.67
2023-04-03T08:53:11.504Z,89.33
2023-04-03T08:55:45.663Z,85.66
2023-04-03T08:58:16.759Z,83.35
2023-04-03T09:00:50.168Z,82.19
2023-04-03T09:03:20.061Z,82.20
2023-04-03T09:05:55.582Z,81.09
2023-04-03T09:08:26.267Z,82.37
2023-04-03T09:11:28.125Z,78.84
2023-04-03T09:14:01.812Z,71.18
2023-04-03T09:16:30.507Z,72.73
2023-04-03T09:19:13.864Z,59.71
2023-04-03T09:21:42.797Z,57.61
2023-04-03T09:24:12.381Z,58.54
2023-04-03T09:26:46.717Z,61.34
2023-04-03T09:29:21.796Z,56.41
2023-04-03T09:31:50.739Z,54.13
2023-04-03T09:34:43.465Z,54.35
2023-04-03T09:37:09.564Z,56.04
2023-04-03T09:39:56.601Z,56.01
2023-04-03T09:42:24.408Z,57.60
2023-04-03T09:44:58.447Z,54.31
2023-04-03T09:47:36.569Z,54.20
2023-04-03T09:50:14.647Z,54.61
2023-04-03T09:52:46.381Z,54.67
2023-04-03T09:55:15.576Z,53.96
2023-04-03T09:57:41.476Z,50.93
2023-04-03T10:00:21.930Z,50.33
2023-04-03T10:02:53.066Z,50.82
2023-04-03T10:05:33.487Z,50.65
2023-04-03T10:08:14.334Z,46.92
2023-04-03T10:10:45.933Z,47.22
2023-04-03T10:13:21.774Z,45.14
2023-04-03T10:15:52.987Z,45.18
2023-04-03T10:18:46.211Z,44.38
2023-04-03T10:21:27.127Z,44.69
2023-04-03T10:24:10.377Z,44.63
2023-04-03T10:26:45.461Z,46.25
2023-04-03T10:29:32.828Z,43.63
2023-04-03T10:32:16.043Z,41.38
2023-04-03T10:34:51.642Z,40.94
2023-04-03T10:37:37.045Z,40.12
2023-04-03T10:40:31.510Z,40.23
2023-04-03T10:43:06.746Z,39.90
2023-04-03T10:45:50.800Z,41.59
2023-04-03T10:48:22.652Z,38.12
2023-04-03T10:51:07.414Z,37.31
2023-04-03T10:54:01.217Z,38.31
2023-04-03T10:56:32.047Z,36.63
2023-04-03T10:59:14.269Z,37.61
2023-04-03T11:01:44.456Z,35.67
2023-04-03T11:04:12.979Z,36.63
2023-04-03T11:06:58.327Z,36.64
2023-04-03T11:09:28.423Z,35.92
2023-04-03T11:12:10.852Z,36.96
2023-04-03T11:14:38.571Z,34.80
2023-04-03T11:17:04.372Z,35.33
2023-04-03T11:20:12.269Z,35.70
2023-04-03T11:22:51.902Z,34.42
2023-04-03T11:25:25.571Z,35.98
2023-04-03T11:27:56.982Z,35.65
2023-04-03T11:30:28.610Z,36.21
2023-04-03T11:33:03.757Z,34.50
2023-04-03T11:35:30.982Z,36.13
2023-04-03T11:38:00.348Z,35.80
2023-04-03T11:40:31.123Z,34.89
2023-04-03T11:42:59.920Z,34.85
2023-04-03T11:45:33.021Z,35.02
2023-04-03T11:48:28.521Z,35.11
2023-04-03T11:50:55.806Z,36.61
2023-04-03T11:53:29.594Z,36.10
2023-04-03T11:56:01.000Z,37.22
2023-04-03T11:58:35.195Z,35.81
2023-04-03T12:01:08.260Z,35.45
2023-04-03T12:03:58.074Z,35.92
2023-04-03T12:06:33.103Z,35.47
2023-04-03T12:08:59.082Z,34.25
2023-04-03T12:11:33.322Z,36.63
2023-04-03T12:13:59.057Z,34.11
2023-04-03T12:16:32.667Z,34.53
2023-04-03T12:19:04.456Z,36.00
2023-04-03T12:21:30.425Z,33.38
2023-04-03T12:24:08.341Z,33.41
2023-04-03T12:26:56.259Z,33.94
2023-04-03T12:29:28.920Z,33.14
2023-04-03T12:32:04.108Z,34.45
2023-04-03T12:35:07.727Z,33.84
2023-04-03T12:37:58.892Z,35.52
2023-04-03T12:40:48.557Z,34.31
2023-04-03T12:43:23.675Z,32.54
2023-04-03T12:46:00.416Z,33.28
2023-04-03T12:48:29.740Z,33.97
2023-04-03T12:50:57.708Z,33.78
2023-04-03T12:53:36.367Z,31.93
2023-04-03T12:56:24.543Z,33.18
2023-04-03T12:58:53.336Z,32.84
2023-04-03T13:01:23.685Z,33.20
2023-04-03T13:03:57.388Z,33.71
2023-04-03T13:06:28.307Z,34.45
2023-04-03T13:08:57.521Z,33.59
2023-04-03T13:11:27.363Z,33.73
2023-04-03T13:14:06.167Z,34.05
2023-04-03T13:16:33.718Z,33.83
2023-04-03T13:19:00.253Z,33.49
2023-04-03T13:21:28.214Z,33.48
2023-04-03T13:24:11.490Z,33.30
2023-04-03T13:26:38.568Z,34.42
2023-04-03T13:29:09.439Z,34.53
2023-04-03T13:31:39.391Z,34.49
2023-04-03T13:34:14.283Z,34.70
2023-04-03T13:36:58.116Z,35.00
2023-04-03T13:39:32.582Z,35.16
2023-04-03T13:42:03.737Z,34.61
2023-04-03T13:44:33.760Z,34.37
2023-04-03T13:47:21.405Z,34.13
2023-04-03T13:50:15.515Z,34.94
2023-04-03T13:52:45.755Z,34.61
2023-04-03T13:55:25.955Z,34.23
2023-04-03T13:58:23.544Z,34.96
2023-04-03T14:01:21.246Z,35.32
2023-04-03T14:03:59.987Z,37.85
2023-04-03T14:06:27.760Z,36.33
2023-04-03T14:08:53.874Z,36.34
2023-04-03T14:11:29.711Z,35.35
2023-04-03T14:14:00.638Z,37.15
2023-04-03T14:16:30.064Z,36.37
2023-04-03T14:18:56.068Z,36.24
2023-04-03T14:21:21.972Z,37.60
2023-04-03T14:23:48.663Z,36.24
2023-04-03T14:26:23.673Z,35.51
2023-04-03T14:28:53.570Z,34.34
2023-04-03T14:31:21.280Z,35.64
2023-04-03T14:33:47.806Z,37.37
2023-04-03T14:36:33.291Z,36.09
2023-04-03T14:39:01.078Z,35.90
2023-04-03T14:41:27.504Z,35.94
2023-04-03T14:43:53.908Z,38.12
2023-04-03T14:46:38.619Z,36.17
2023-04-03T14:49:21.582Z,37.07
2023-04-03T14:51:47.855Z,35.83
2023-04-03T14:54:19.088Z,35.83
2023-04-03T14:56:45.695Z,36.86
2023-04-03T14:59:13.392Z,36.57
2023-04-03T15:01:39.609Z,35.06
2023-04-03T15:04:12.296Z,34.68
2023-04-03T15:06:38.327Z,36.92
2023-04-03T15:09:04.204Z,36.53
2023-04-03T15:11:30.234Z,36.36
2023-04-03T15:13:56.105Z,35.95
2023-04-03T15:16:30.258Z,36.27
2023-04-03T15:18:56.148Z,36.97
2023-04-03T15:21:22.140Z,38.10
2023-04-03T15:23:48.002Z,35.12
2023-04-03T15:26:14.003Z,37.68
2023-04-03T15:28:42.327Z,36.89
2023-04-03T15:31:08.758Z,37.36
2023-04-03T15:33:36.290Z,36.13
2023-04-03T15:36:07.100Z,36.48
2023-04-03T15:38:34.431Z,37.08
2023-04-03T15:41:00.839Z,37.98
2023-04-03T15:43:26.734Z,37.74
2023-04-03T15:45:52.961Z,37.70
2023-04-03T15:48:18.895Z,38.25
2023-04-03T15:50:44.839Z,39.04
2023-04-03T15:53:10.822Z,39.34
2023-04-03T15:55:38.251Z,39.75
2023-04-03T15:58:04.862Z,39.27
2023-04-03T16:00:32.219Z,40.02
2023-04-03T16:03:06.495Z,40.42
2023-04-03T16:05:33.290Z,40.16
2023-04-03T16:08:00.644Z,39.16
2023-04-03T16:10:27.539Z,39.45
2023-04-03T16:12:53.549Z,40.01
2023-04-03T16:15:19.503Z,39.71
2023-04-03T16:17:45.947Z,39.69
2023-04-03T16:20:13.380Z,40.40
2023-04-03T16:22:40.307Z,38.90
2023-04-03T16:25:07.695Z,39.48
2023-04-03T16:27:34.244Z,40.12
2023-04-03T16:30:00.522Z,40.71
2023-04-03T16:32:29.616Z,40.33
2023-04-03T16:34:56.276Z,41.03
2023-04-03T16:37:22.290Z,41.04
2023-04-03T16:39:48.200Z,41.69
2023-04-03T16:42:14.122Z,42.36
2023-04-03T16:44:40.304Z,43.75
2023-04-03T16:47:08.123Z,43.86
2023-04-03T16:49:35.293Z,42.12
2023-04-03T16:52:03.189Z,43.50
2023-04-03T16:54:29.716Z,43.48
2023-04-03T16:56:55.765Z,44.90
2023-04-03T16:59:21.730Z,44.76
2023-04-03T17:01:47.635Z,46.03
2023-04-03T17:04:13.581Z,45.66
2023-04-03T17:06:40.101Z,46.11
2023-04-03T17:09:07.163Z,46.74
2023-04-03T17:13:59.816Z,46.44
2023-04-03T17:16:28.397Z,47.01
2023-04-03T17:18:57.900Z,46.43
2023-04-03T17:21:26.657Z,47.24
2023-04-03T17:24:00.936Z,48.21
2023-04-03T17:26:28.325Z,48.23
2023-04-03T17:28:54.163Z,48.14
2023-04-03T17:31:20.603Z,49.38
2023-04-03T17:33:46.537Z,50.35
2023-04-03T17:36:12.578Z,50.48
2023-04-03T17:38:38.831Z,50.34
2023-04-03T17:41:07.302Z,49.43
2023-04-03T17:43:34.173Z,50.02
2023-04-03T17:46:06.313Z,51.52
2023-04-03T17:48:33.857Z,51.30
2023-04-03T17:51:07.330Z,50.22
2023-04-03T17:53:33.270Z,51.38
2023-04-03T17:56:04.862Z,52.19
2023-04-03T17:58:30.819Z,52.63
2023-04-03T18:00:57.235Z,53.74
2023-04-03T18:03:23.158Z,52.35
2023-04-03T18:05:50.191Z,52.05
2023-04-03T18:08:16.670Z,52.44
2023-04-03T18:10:42.711Z,52.29
2023-04-03T18:13:09.061Z,52.67
2023-04-03T18:15:35.053Z,53.42
2023-04-03T18:18:00.995Z,53.48
2023-04-03T18:20:26.980Z,54.25
2023-04-03T18:22:52.953Z,53.45
2023-04-03T18:25:19.148Z,54.47
2023-04-03T18:27:46.505Z,54.32
2023-04-03T18:30:15.837Z,55.87
2023-04-03T18:32:42.432Z,54.83
2023-04-03T18:35:08.664Z,54.72
2023-04-03T18:37:34.731Z,55.15
2023-04-03T18:40:00.718Z,55.97
2023-04-03T18:42:27.000Z,54.89
2023-04-03T18:44:57.852Z,56.50
2023-04-03T18:47:24.090Z,56.80
2023-04-03T18:49:50.014Z,56.65
2023-04-03T18:52:16.104Z,56.57
2023-04-03T18:54:42.607Z,57.75
2023-04-03T18:57:08.532Z,57.51
2023-04-03T18:59:34.525Z,57.74
2023-04-03T19:02:01.141Z,57.67
2023-04-03T19:04:28.227Z,58.87
2023-04-03T19:06:54.482Z,59.37
2023-04-03T19:09:20.858Z,58.00
2023-04-03T19:11:46.735Z,58.42
2023-04-03T19:14:16.627Z,58.96
2023-04-03T19:16:43.925Z,59.29
2023-04-03T19:19:11.914Z,59.46
2023-04-03T19:21:40.321Z,59.34
2023-04-03T19:24:11.410Z,60.37
2023-04-03T19:26:38.264Z,59.17
2023-04-03T19:29:05.033Z,58.99
2023-04-03T19:31:32.757Z,59.49
2023-04-03T19:33:59.828Z,59.76
2023-04-03T19:36:25.918Z,59.12
2023-04-03T19:38:52.804Z,59.94
2023-04-03T19:41:23.837Z,60.10
2023-04-03T19:43:52.227Z,60.93
2023-04-03T19:46:18.573Z,61.34
2023-04-03T19:48:46.609Z,61.49
2023-04-03T19:51:13.192Z,61.81
2023-04-03T19:53:39.086Z,61.21
2023-04-03T19:56:05.072Z,62.95
2023-04-03T19:58:33.968Z,61.51
2023-04-03T20:01:02.380Z,62.65
2023-04-03T20:03:29.875Z,63.88
2023-04-03T20:05:58.327Z,62.85
2023-04-03T20:08:27.677Z,63.89
2023-04-03T20:10:55.240Z,64.64
2023-04-03T20:13:21.724Z,62.81
2023-04-03T20:15:47.630Z,64.13
2023-04-03T20:18:19.619Z,63.76
2023-04-03T20:21:01.035Z,64.36
2023-04-03T20:23:28.425Z,65.31
2023-04-03T20:26:08.461Z,64.04
2023-04-03T20:28:35.713Z,63.94
2023-04-03T20:31:01.761Z,64.17
2023-04-03T20:33:28.002Z,65.30
2023-04-03T20:35:57.831Z,66.39
2023-04-03T20:38:24.729Z,65.83
2023-04-03T20:40:51.452Z,65.31
2023-04-03T20:43:17.312Z,65.32
2023-04-03T20:45:43.332Z,64.40
2023-04-03T20:48:12.258Z,64.71
2023-04-03T20:50:38.726Z,64.50
2023-04-03T20:53:04.785Z,65.16
2023-04-03T20:55:30.650Z,64.42
2023-04-03T20:58:00.641Z,64.00
2023-04-03T21:00:28.198Z,64.08
2023-04-03T21:02:56.292Z,64.78
2023-04-03T21:05:25.257Z,64.98
2023-04-03T21:08:29.068Z,65.25
2023-04-03T21:11:32.266Z,66.03
2023-04-03T21:14:36.145Z,66.00
2023-04-03T21:17:01.838Z,65.70
2023-04-03T21:19:27.753Z,66.05
2023-04-03T21:21:54.278Z,66.23
2023-04-03T21:24:20.312Z,66.01
2023-04-03T21:26:46.482Z,66.00
2023-04-03T21:29:13.567Z,66.77
2023-04-03T21:31:57.623Z,66.90
2023-04-03T21:34:28.506Z,69.08
2023-04-03T21:36:55.389Z,68.73
2023-04-03T21:39:22.323Z,67.98
2023-04-03T21:41:54.082Z,67.31
2023-04-03T21:44:20.221Z,68.96
2023-04-03T21:46:47.158Z,67.03
2023-04-03T21:49:13.472Z,67.36
2023-04-03T21:51:39.439Z,68.00
2023-04-03T21:54:05.374Z,67.65
2023-04-03T21:56:31.218Z,66.95
2023-04-03T21:58:59.862Z,67.56
2023-04-03T22:01:25.726Z,68.13
2023-04-03T22:03:51.572Z,68.37
2023-04-03T22:06:17.545Z,69.65
2023-04-03T22:08:43.830Z,69.41
2023-04-03T22:11:12.714Z,68.96
2023-04-03T22:13:38.727Z,68.79
2023-04-03T22:16:05.314Z,68.88
2023-04-03T22:18:31.942Z,68.65
2023-04-03T22:20:58.236Z,69.31
2023-04-03T22:23:25.411Z,69.96
2023-04-03T22:26:07.818Z,69.46
2023-04-03T22:28:40.439Z,69.62
2023-04-03T22:31:07.150Z,69.34
2023-04-03T22:33:35.700Z,69.88
2023-04-03T22:36:03.451Z,68.80
2023-04-03T22:38:29.604Z,70.04
2023-04-03T22:40:59.856Z,69.75
2023-04-03T22:43:27.189Z,69.18
2023-04-03T22:45:53.230Z,68.33
2023-04-03T22:48:19.299Z,68.92
2023-04-03T22:50:46.240Z,68.87
2023-04-03T22:53:12.426Z,67.95
2023-04-03T22:55:38.315Z,68.69
2023-04-03T22:58:05.012Z,68.43
2023-04-03T23:00:31.303Z,68.65
2023-04-03T23:03:00.958Z,68.83
2023-04-03T23:05:27.886Z,67.77
2023-04-03T23:07:53.844Z,68.18
2023-04-03T23:10:20.970Z,67.54
2023-04-03T23:12:46.776Z,68.64
2023-04-03T23:15:16.880Z,68.64
2023-04-03T23:17:42.789Z,68.36
2023-04-03T23:20:09.067Z,68.55
2023-04-03T23:22:35.580Z,69.45
2023-04-03T23:25:01.432Z,69.04
2023-04-03T23:27:27.517Z,69.07
2023-04-03T23:29:53.335Z,70.71
2023-04-03T23:32:19.229Z,69.99
2023-04-03T23:34:45.260Z,70.15
2023-04-03T23:37:12.083Z,70.99
2023-04-03T23:39:37.960Z,70.15
2023-04-03T23:42:08.338Z,71.03
2023-04-03T23:44:34.337Z,71.30
2023-04-03T23:47:00.570Z,71.47
2023-04-03T23:49:27.005Z,72.22
2023-04-03T23:51:53.523Z,73.56
2023-04-03T23:54:20.008Z,74.22
2023-04-03T23:56:45.776Z,73.50
2023-04-03T23:59:11.631Z,74.47
